Time;durP1;ratioP1;P1;durP2;ratioP2;P2;SDS_P1;SDS_P2;PMS_P1;PMS_P2;Temp;Humidity;BMP_temperature;BMP_pressure;BME280_temperature;BME280_humidity;BME280_pressure;Samples;Min_cycle;Max_cycle;Signal;HPM_P1;HPM_P2
2023/03/12 00:01:22;;;;;;;11.25;6.10;;;2.60;99.90;;;;;;5095930;28;20019;-74
2023/03/12 00:03:48;;;;;;;13.45;5.95;;;2.50;99.90;;;;;;5114347;28;20039;-74
2023/03/12 00:06:15;;;;;;;11.85;6.10;;;2.50;99.90;;;;;;5095615;28;20124;-74
2023/03/12 00:08:41;;;;;;;14.23;6.05;;;2.50;99.90;;;;;;5095588;28;20039;-73
2023/03/12 00:11:12;;;;;;;11.90;5.57;;;2.60;99.90;;;;;;5113511;28;20096;-72
2023/03/12 00:13:38;;;;;;;10.85;5.68;;;2.60;99.90;;;;;;5113934;28;20067;-73
2023/03/12 00:16:13;;;;;;;16.52;5.95;;;2.50;99.90;;;;;;5095090;28;20337;-74
2023/03/12 00:18:40;;;;;;;16.10;7.43;;;2.70;99.90;;;;;;5095532;28;20027;-73
2023/03/12 00:21:06;;;;;;;18.27;6.88;;;2.70;99.90;;;;;;5095703;28;20039;-73
2023/03/12 00:23:33;;;;;;;20.63;8.55;;;2.60;99.90;;;;;;5113582;28;20050;-74
2023/03/12 00:26:02;;;;;;;;;;;2.70;99.90;;;;;;5113574;28;20024;-74
2023/03/12 00:28:28;;;;;;;11.70;5.68;;;2.70;99.90;;;;;;5095511;28;19904;-72
2023/03/12 00:30:54;;;;;;;11.73;6.03;;;2.70;99.90;;;;;;5113996;28;20035;-74
2023/03/12 00:33:20;;;;;;;11.03;5.67;;;2.70;99.90;;;;;;5095453;28;20114;-73
2023/03/12 00:35:45;;;;;;;15.53;6.53;;;2.80;99.90;;;;;;5095599;28;20035;-74
2023/03/12 00:38:11;;;;;;;13.80;5.57;;;2.70;99.90;;;;;;5113772;28;20032;-73
2023/03/12 00:40:38;;;;;;;13.23;5.60;;;2.60;99.90;;;;;;5095331;28;20026;-73
2023/03/12 00:43:03;;;;;;;16.02;7.35;;;2.50;99.90;;;;;;5095055;28;20032;-73
2023/03/12 00:45:29;;;;;;;16.77;7.53;;;2.50;99.90;;;;;;5113409;28;20028;-73
2023/03/12 00:47:54;;;;;;;13.27;6.30;;;2.30;99.90;;;;;;5095358;28;20487;-73
2023/03/12 00:50:20;;;;;;;18.33;7.60;;;2.40;99.90;;;;;;5095186;28;20028;-73
2023/03/12 00:52:45;;;;;;;13.50;6.37;;;2.40;99.90;;;;;;5095873;28;20054;-74
2023/03/12 00:55:11;;;;;;;12.93;6.57;;;2.70;99.90;;;;;;5095594;28;20035;-73
2023/03/12 00:57:37;;;;;;;15.07;6.90;;;2.70;99.90;;;;;;5096107;28;20098;-73
2023/03/12 01:00:08;;;;;;;12.13;6.60;;;2.70;99.90;;;;;;5098102;28;20023;-73
2023/03/12 01:02:34;;;;;;;12.60;6.65;;;2.80;99.90;;;;;;5121053;28;20028;-73
2023/03/12 01:04:59;;;;;;;10.80;6.00;;;2.80;99.90;;;;;;5103376;28;20049;-73
2023/03/12 01:07:25;;;;;;;12.80;7.30;;;2.80;99.90;;;;;;5104149;28;20077;-73
2023/03/12 01:09:51;;;;;;;13.33;6.83;;;2.80;99.90;;;;;;5123508;28;20023;-73
2023/03/12 01:12:16;;;;;;;16.97;7.20;;;2.80;99.90;;;;;;5120958;28;20024;-73
2023/03/12 01:14:42;;;;;;;13.37;6.67;;;2.80;99.90;;;;;;5107182;28;20028;-72
2023/03/12 01:17:07;;;;;;;15.83;7.20;;;2.70;99.90;;;;;;5125658;28;20047;-73
2023/03/12 01:19:33;;;;;;;17.63;7.53;;;2.70;99.90;;;;;;5109359;28;20104;-73
2023/03/12 01:21:58;;;;;;;14.40;7.03;;;2.70;99.90;;;;;;5108859;28;20031;-72
2023/03/12 01:24:24;;;;;;;15.37;7.27;;;2.50;99.90;;;;;;5109432;28;20030;-73
2023/03/12 01:26:50;;;;;;;15.60;6.83;;;2.30;99.90;;;;;;5128932;28;20128;-73
2023/03/12 01:29:15;;;;;;;16.93;7.27;;;2.20;99.90;;;;;;5109969;28;20039;-73
2023/03/12 01:31:41;;;;;;;14.43;7.23;;;2.20;99.90;;;;;;5107329;28;20023;-72
2023/03/12 01:34:09;;;;;;;16.90;8.13;;;2.20;99.90;;;;;;5102100;28;20028;-73
2023/03/12 01:36:35;;;;;;;14.25;6.80;;;2.40;99.90;;;;;;5100837;28;20024;-72
2023/03/12 01:39:00;;;;;;;15.27;7.53;;;2.40;99.90;;;;;;5118113;28;20525;-69
2023/03/12 01:41:31;;;;;;;17.30;7.00;;;2.50;99.90;;;;;;5099820;28;20072;-73
2023/03/12 01:43:57;;;;;;;18.70;7.10;;;2.50;99.90;;;;;;5099842;28;20069;-73
2023/03/12 01:46:30;;;;;;;14.87;6.90;;;2.60;99.90;;;;;;5119085;28;20027;-73
2023/03/12 01:49:07;;;;;;;13.93;6.75;;;2.60;99.90;;;;;;5099135;28;20391;-74
2023/03/12 01:51:38;;;;;;;13.70;6.93;;;2.60;99.90;;;;;;5081240;28;20100;-72
2023/03/12 01:54:09;;;;;;;13.70;6.90;;;2.50;99.90;;;;;;5078350;28;20028;-72
2023/03/12 01:56:37;;;;;;;16.45;7.40;;;2.60;99.90;;;;;;5096721;28;20425;-73
2023/03/12 01:59:14;;;;;;;17.20;6.88;;;2.60;99.90;;;;;;5077945;28;20504;-72
2023/03/12 02:01:42;;;;;;;17.50;7.70;;;2.50;99.90;;;;;;5096360;28;20035;-72
2023/03/12 02:04:07;;;;;;;12.57;7.18;;;2.50;99.90;;;;;;5078008;28;20035;-74
2023/03/12 02:06:45;;;;;;;12.38;6.78;;;2.50;99.90;;;;;;5105389;28;20020;-72
2023/03/12 02:09:12;;;;;;;16.13;7.72;;;2.50;99.90;;;;;;5109668;28;20062;-71
2023/03/12 02:11:37;;;;;;;;;;;2.50;99.90;;;;;;5095191;28;20035;-73
2023/03/12 02:14:03;;;;;;;12.63;7.78;;;2.30;99.90;;;;;;5094511;28;19908;-71
2023/03/12 02:16:29;;;;;;;17.07;6.10;;;2.40;99.90;;;;;;5092303;28;20055;-72
2023/03/12 02:18:59;;;;;;;16.40;7.13;;;2.40;99.90;;;;;;5099899;28;20066;-73
2023/03/12 02:21:28;;;;;;;12.98;6.05;;;2.50;99.90;;;;;;5096631;28;20408;-73
2023/03/12 02:24:34;;;;;;;13.65;6.22;;;2.50;99.90;;;;;;5078408;28;20384;-72
2023/03/12 02:27:01;;;;;;;10.80;5.90;;;2.60;99.90;;;;;;5077601;28;20024;-72
2023/03/12 02:29:29;;;;;;;;;;;2.60;99.90;;;;;;5096419;28;20106;-72
2023/03/12 02:31:56;;;;;;;9.07;5.10;;;2.60;99.90;;;;;;5095963;28;20311;-73
2023/03/12 02:34:22;;;;;;;12.02;5.65;;;2.60;99.90;;;;;;5095205;28;20028;-73
2023/03/12 02:36:48;;;;;;;9.17;4.70;;;2.70;99.90;;;;;;5076960;28;20547;-72
2023/03/12 02:39:14;;;;;;;13.88;4.45;;;2.50;99.90;;;;;;5094942;28;20024;-72
2023/03/12 02:41:47;;;;;;;10.23;4.63;;;2.40;99.90;;;;;;5077218;28;20545;-73
2023/03/12 02:44:19;;;;;;;16.55;4.80;;;2.50;99.90;;;;;;5095138;28;20016;-72
2023/03/12 02:46:53;;;;;;;8.27;3.63;;;2.40;99.90;;;;;;5076932;28;20447;-72
2023/03/12 02:49:22;;;;;;;8.18;4.22;;;2.70;99.90;;;;;;5095245;28;20028;-72
2023/03/12 02:51:47;;;;;;;10.93;3.80;;;2.70;99.90;;;;;;5077888;28;20067;-72
2023/03/12 02:54:15;;;;;;;8.70;3.70;;;2.80;99.90;;;;;;5096180;28;20068;-72
2023/03/12 02:56:41;;;;;;;10.27;3.92;;;3.00;99.90;;;;;;5095014;28;20024;-73
2023/03/12 02:59:08;;;;;;;6.47;3.38;;;3.10;99.90;;;;;;5094953;28;20076;-73
2023/03/12 03:01:34;;;;;;;7.15;3.20;;;3.00;99.90;;;;;;5076768;28;20032;-73
2023/03/12 03:04:01;;;;;;;7.75;3.25;;;3.20;99.90;;;;;;5094614;28;20027;-73
2023/03/12 03:06:27;;;;;;;10.85;3.85;;;3.20;99.90;;;;;;5076333;28;20036;-72
2023/03/12 03:08:52;;;;;;;8.43;3.60;;;3.30;99.90;;;;;;5095004;28;20520;-73
2023/03/12 03:11:23;;;;;;;7.87;3.13;;;3.20;99.90;;;;;;5076333;28;20115;-72
2023/03/12 03:13:49;;;;;;;9.82;3.88;;;3.10;99.90;;;;;;5076477;28;20490;-73
2023/03/12 03:16:14;;;;;;;6.72;3.40;;;3.10;99.90;;;;;;5094332;28;20091;-73
2023/03/12 03:18:40;;;;;;;6.87;2.93;;;3.30;99.90;;;;;;5076247;28;20024;-73
2023/03/12 03:21:07;;;;;;;7.47;3.47;;;3.30;99.90;;;;;;5095648;28;20057;-73
2023/03/12 03:23:33;;;;;;;5.40;2.92;;;3.30;99.90;;;;;;5076870;28;20123;-73
2023/03/12 03:25:59;;;;;;;12.45;3.55;;;3.30;99.90;;;;;;5098808;28;20437;-72
2023/03/12 03:28:27;;;;;;;7.47;3.70;;;3.10;99.90;;;;;;5101591;23;20450;-70
2023/03/12 03:30:56;;;;;;;10.88;3.33;;;3.00;99.90;;;;;;5073137;28;20099;-70
2023/03/12 03:33:23;;;;;;;6.35;2.78;;;3.00;99.90;;;;;;5073697;28;20029;-70
2023/03/12 03:35:48;;;;;;;10.63;3.53;;;3.00;99.90;;;;;;5073816;28;20024;-70
2023/03/12 03:38:14;;;;;;;10.27;3.63;;;3.20;99.90;;;;;;5072350;28;20029;-69
2023/03/12 03:40:40;;;;;;;6.23;2.97;;;3.20;99.90;;;;;;5072674;28;20081;-69
2023/03/12 03:43:05;;;;;;;8.20;3.23;;;3.20;99.90;;;;;;5074790;28;20117;-68
2023/03/12 03:45:31;;;;;;;7.03;2.70;;;3.10;99.90;;;;;;5075817;28;20028;-69
2023/03/12 03:47:56;;;;;;;7.67;2.97;;;3.20;99.90;;;;;;5073537;28;20035;-70
2023/03/12 03:50:22;;;;;;;5.83;2.43;;;3.30;99.90;;;;;;5076102;28;20029;-69
2023/03/12 03:52:47;;;;;;;6.93;2.80;;;3.40;99.90;;;;;;5075164;28;20028;-69
2023/03/12 03:55:13;;;;;;;6.67;2.80;;;3.30;99.90;;;;;;5075400;28;20021;-69
2023/03/12 03:57:39;;;;;;;7.80;2.77;;;3.20;99.90;;;;;;5082175;28;20020;-70
2023/03/12 04:00:08;;;;;;;7.53;2.30;;;3.20;99.90;;;;;;5077575;28;20267;-69
2023/03/12 04:02:34;;;;;;;9.30;2.97;;;3.30;99.90;;;;;;5074238;28;20141;-69
2023/03/12 04:05:00;;;;;;;11.93;2.83;;;3.40;99.90;;;;;;5073994;28;20032;-69
2023/03/12 04:07:27;;;;;;;6.70;2.57;;;3.60;99.90;;;;;;5073990;28;20024;-69
2023/03/12 04:09:52;;;;;;;7.68;2.53;;;3.70;99.90;;;;;;5074334;28;20017;-69
2023/03/12 04:12:19;;;;;;;7.05;3.20;;;3.60;99.90;;;;;;5074699;28;20080;-69
2023/03/12 04:14:45;;;;;;;7.60;2.70;;;3.50;99.90;;;;;;5073883;28;20123;-70
2023/03/12 04:17:11;;;;;;;6.07;2.80;;;3.50;99.90;;;;;;5074643;28;20100;-70
2023/03/12 04:19:36;;;;;;;5.93;2.70;;;3.50;99.90;;;;;;5073219;28;20111;-69
2023/03/12 04:22:02;;;;;;;13.03;3.10;;;3.50;99.90;;;;;;5074118;28;20031;-69
2023/03/12 04:24:27;;;;;;;8.07;3.90;;;3.50;99.90;;;;;;5089851;28;20077;-70
2023/03/12 04:26:53;;;;;;;10.97;4.27;;;3.40;99.90;;;;;;5072407;28;20274;-70
2023/03/12 04:29:19;;;;;;;9.87;4.07;;;3.40;99.90;;;;;;5075762;28;20048;-69
2023/03/12 04:31:45;;;;;;;10.63;3.80;;;3.50;99.90;;;;;;5073760;28;20028;-69
2023/03/12 04:34:11;;;;;;;8.98;3.40;;;3.30;99.90;;;;;;5072866;28;20115;-70
2023/03/12 04:36:36;;;;;;;6.88;3.53;;;3.20;99.90;;;;;;5074301;28;20028;-70
2023/03/12 04:39:06;;;;;;;9.23;3.67;;;3.10;99.90;;;;;;5073390;28;20054;-70
2023/03/12 04:41:32;;;;;;;10.52;3.47;;;3.00;99.90;;;;;;5074399;28;20025;-69
2023/03/12 04:43:57;;;;;;;9.02;4.85;;;3.00;99.90;;;;;;5078633;28;20017;-69
2023/03/12 04:46:23;;;;;;;9.77;3.43;;;2.90;99.90;;;;;;5078261;28;20446;-70
2023/03/12 04:48:49;;;;;;;8.07;3.30;;;2.90;99.90;;;;;;5077414;28;20477;-70
2023/03/12 04:51:14;;;;;;;8.90;3.07;;;2.90;99.90;;;;;;5079726;28;20107;-70
2023/03/12 04:53:40;;;;;;;7.88;3.05;;;2.90;99.90;;;;;;5079302;28;20035;-70
2023/03/12 04:56:06;;;;;;;6.80;3.60;;;2.90;99.90;;;;;;5080177;28;20031;-70
2023/03/12 04:58:32;;;;;;;8.30;3.13;;;2.90;99.90;;;;;;5087508;28;20016;-70
2023/03/12 05:00:57;;;;;;;10.47;4.03;;;3.00;99.90;;;;;;5101444;28;20069;-69
2023/03/12 05:03:23;;;;;;;8.07;3.37;;;3.00;99.90;;;;;;5099263;28;20381;-70
2023/03/12 05:05:48;;;;;;;6.67;3.47;;;3.00;99.90;;;;;;5099043;28;20024;-69
2023/03/12 05:08:14;;;;;;;7.97;4.03;;;2.90;99.90;;;;;;5099228;28;20025;-70
2023/03/12 05:10:40;;;;;;;9.17;3.40;;;2.90;99.90;;;;;;5100330;28;20024;-69
2023/03/12 05:13:19;;;;;;;8.07;3.63;;;2.90;99.90;;;;;;5097874;28;20031;-69
2023/03/12 05:15:46;;;;;;;7.82;3.45;;;2.90;99.90;;;;;;5098511;28;20024;-70
2023/03/12 05:18:12;;;;;;;8.77;3.90;;;2.90;99.90;;;;;;5100903;28;20023;-70
2023/03/12 05:20:38;;;;;;;7.82;3.67;;;2.90;99.90;;;;;;5099005;28;20079;-69
2023/03/12 05:23:03;;;;;;;11.20;5.13;;;3.00;99.90;;;;;;5100003;28;20111;-69
2023/03/12 05:25:29;;;;;;;8.03;3.40;;;3.00;99.90;;;;;;5098783;28;20115;-69
2023/03/12 05:27:55;;;;;;;8.97;3.83;;;3.10;99.90;;;;;;5100603;28;20036;-70
2023/03/12 05:30:20;;;;;;;9.15;3.63;;;3.30;99.90;;;;;;5098640;28;20119;-70
2023/03/12 05:32:46;;;;;;;9.00;3.10;;;3.40;99.90;;;;;;5099478;28;20553;-70
2023/03/12 05:35:11;;;;;;;7.13;3.47;;;3.40;99.90;;;;;;5099751;28;20027;-69
2023/03/12 05:37:37;;;;;;;6.93;3.33;;;3.40;99.90;;;;;;5099399;28;20480;-69
2023/03/12 05:40:03;;;;;;;8.33;3.30;;;3.50;99.90;;;;;;5100356;28;20464;-69
2023/03/12 05:42:29;;;;;;;10.20;3.65;;;3.60;99.90;;;;;;5097963;28;20034;-69
2023/03/12 05:44:55;;;;;;;6.60;3.13;;;3.80;99.90;;;;;;5099902;28;20083;-70
2023/03/12 05:47:21;;;;;;;6.93;3.05;;;3.70;99.90;;;;;;5096928;28;20032;-70
2023/03/12 05:49:47;;;;;;;7.55;3.17;;;3.70;99.90;;;;;;5098098;28;20024;-69
2023/03/12 05:52:12;;;;;;;8.33;3.23;;;3.70;99.90;;;;;;5099366;28;20103;-69
2023/03/12 05:54:38;;;;;;;9.57;3.13;;;3.70;99.90;;;;;;5099268;28;20043;-69
2023/03/12 05:57:03;;;;;;;6.87;2.80;;;3.70;99.90;;;;;;5098122;28;20036;-69
2023/03/12 05:59:29;;;;;;;8.27;3.97;;;3.80;99.90;;;;;;5097330;28;20039;-69
2023/03/12 06:01:55;;;;;;;6.07;2.80;;;4.00;99.90;;;;;;5097198;28;20035;-69
2023/03/12 06:04:21;;;;;;;8.07;3.20;;;3.90;99.90;;;;;;5097451;28;20032;-69
2023/03/12 06:06:46;;;;;;;7.60;3.00;;;3.80;99.90;;;;;;5096842;28;20080;-69
2023/03/12 06:09:12;;;;;;;6.73;3.07;;;3.80;99.90;;;;;;5097969;28;20476;-69
2023/03/12 06:11:37;;;;;;;6.73;2.93;;;3.70;99.90;;;;;;5098032;28;20520;-69
2023/03/12 06:14:03;;;;;;;6.27;2.53;;;3.80;99.90;;;;;;5099813;28;20397;-69
2023/03/12 06:16:29;;;;;;;10.20;3.33;;;3.80;99.90;;;;;;5100524;28;20067;-69
2023/03/12 06:18:56;;;;;;;6.13;2.70;;;4.00;99.90;;;;;;5102089;28;20021;-69
2023/03/12 06:21:24;;;;;;;8.15;2.80;;;4.10;99.90;;;;;;5101548;28;20027;-69
2023/03/12 06:23:51;;;;;;;7.85;2.70;;;4.20;99.90;;;;;;5098311;28;20020;-69
2023/03/12 06:26:17;;;;;;;;;;;4.10;99.90;;;;;;5099028;28;20088;-70
2023/03/12 06:28:44;;;;;;;5.15;2.78;;;4.10;99.90;;;;;;5099705;28;19911;-69
2023/03/12 06:31:10;;;;;;;6.45;2.88;;;4.10;99.90;;;;;;5095138;28;20502;-69
2023/03/12 06:33:36;;;;;;;7.72;3.03;;;4.00;99.90;;;;;;5095122;28;20032;-70
2023/03/12 06:36:04;;;;;;;7.90;2.63;;;4.00;99.90;;;;;;5097296;28;20039;-70
2023/03/12 06:38:30;;;;;;;7.50;2.65;;;4.00;99.90;;;;;;5095089;28;20027;-70
2023/03/12 06:41:11;;;;;;;8.57;3.83;;;4.10;99.90;;;;;;5094431;28;20107;-70
2023/03/12 06:43:37;;;;;;;6.82;3.00;;;4.10;99.90;;;;;;5095082;28;20437;-70
2023/03/12 06:46:03;;;;;;;;;;;4.00;99.90;;;;;;5095887;28;20035;-69
2023/03/12 06:48:32;;;;;;;5.32;3.13;;;4.00;99.90;;;;;;5096353;28;19985;-69
2023/03/12 06:50:58;;;;;;;7.00;2.85;;;4.00;99.90;;;;;;5095157;28;20051;-69
2023/03/12 06:53:24;;;;;;;8.32;3.13;;;4.20;99.90;;;;;;5096034;28;20035;-69
2023/03/12 06:55:50;;;;;;;9.75;3.25;;;4.20;99.90;;;;;;5096128;28;20024;-69
2023/03/12 06:58:17;;;;;;;9.55;2.97;;;4.40;99.90;;;;;;5095500;28;20020;-68
2023/03/12 07:00:44;;;;;;;8.77;3.55;;;4.40;99.90;;;;;;5096152;28;20048;-69
2023/03/12 07:03:10;;;;;;;8.50;3.85;;;4.50;99.90;;;;;;5096623;28;20028;-69
2023/03/12 07:05:35;;;;;;;8.57;3.40;;;4.50;99.90;;;;;;5098116;28;20504;-70
2023/03/12 07:08:01;;;;;;;8.63;3.33;;;4.50;99.90;;;;;;5097572;28;20120;-70
2023/03/12 07:10:28;;;;;;;8.50;3.60;;;4.40;99.90;;;;;;5098579;28;20386;-69
2023/03/12 07:12:54;;;;;;;;;;;4.40;99.90;;;;;;5095301;28;20327;-69
2023/03/12 07:15:19;;;;;;;6.95;3.55;;;4.30;99.90;;;;;;5095348;28;19908;-69
2023/03/12 07:17:45;;;;;;;12.50;3.53;;;4.20;99.90;;;;;;5094312;28;20020;-69
2023/03/12 07:20:11;;;;;;;8.17;3.40;;;4.20;99.90;;;;;;5094482;28;20025;-69
2023/03/12 07:22:37;;;;;;;9.10;3.55;;;4.10;99.90;;;;;;5094181;28;20024;-68
2023/03/12 07:25:03;;;;;;;8.83;3.50;;;4.10;99.90;;;;;;5094971;28;20031;-69
2023/03/12 07:27:29;;;;;;;6.63;3.60;;;4.20;99.90;;;;;;5093701;28;20077;-70
2023/03/12 07:29:54;;;;;;;8.85;3.47;;;4.20;99.90;;;;;;5094024;28;20070;-70
2023/03/12 07:32:20;;;;;;;6.87;3.83;;;4.10;99.90;;;;;;5094674;28;20477;-70
2023/03/12 07:34:46;;;;;;;10.23;3.67;;;4.20;99.90;;;;;;5094299;28;20024;-68
2023/03/12 07:37:11;;;;;;;8.07;3.63;;;4.00;99.90;;;;;;5095742;28;20060;-69
2023/03/12 07:39:37;;;;;;;10.77;3.93;;;4.00;99.90;;;;;;5095254;28;20519;-70
2023/03/12 07:42:03;;;;;;;8.13;4.23;;;4.00;99.90;;;;;;5095715;28;20440;-69
2023/03/12 07:44:28;;;;;;;11.47;3.97;;;3.90;99.90;;;;;;5093724;28;20054;-69
2023/03/12 07:46:54;;;;;;;9.67;4.00;;;3.80;99.90;;;;;;5075339;28;20149;-69
2023/03/12 07:49:19;;;;;;;10.37;4.33;;;3.70;99.90;;;;;;5074885;28;20028;-70
2023/03/12 07:51:45;;;;;;;8.83;3.97;;;3.60;99.90;;;;;;5075319;28;20025;-70
2023/03/12 07:54:11;;;;;;;9.63;4.33;;;3.60;99.90;;;;;;5074275;28;20032;-70
2023/03/12 07:56:37;;;;;;;9.57;4.22;;;3.60;99.90;;;;;;5075500;28;20266;-71
2023/03/12 07:59:02;;;;;;;11.47;4.43;;;3.50;99.90;;;;;;5075158;28;20055;-72
2023/03/12 08:01:30;;;;;;;8.33;4.47;;;3.40;99.90;;;;;;5075079;28;20070;-72
2023/03/12 08:03:58;;;;;;;9.50;3.60;;;3.40;99.90;;;;;;5075182;28;20048;-72
2023/03/12 08:06:23;;;;;;;9.88;3.72;;;3.40;99.90;;;;;;5074757;28;20051;-72
2023/03/12 08:08:49;;;;;;;8.23;3.55;;;3.30;99.90;;;;;;5076376;28;20103;-72
2023/03/12 08:11:15;;;;;;;7.47;3.67;;;3.30;99.90;;;;;;5072086;28;20483;-72
2023/03/12 08:13:40;;;;;;;8.13;3.83;;;3.50;99.90;;;;;;5073426;28;20423;-72
2023/03/12 08:16:06;;;;;;;12.60;4.00;;;3.50;99.90;;;;;;5090000;28;20503;-72
2023/03/12 08:18:32;;;;;;;9.30;3.57;;;3.50;99.90;;;;;;5093764;28;20024;-72
2023/03/12 08:20:57;;;;;;;7.00;4.57;;;3.60;99.90;;;;;;5093593;28;20395;-72
2023/03/12 08:23:23;;;;;;;11.13;4.37;;;3.40;99.90;;;;;;5095555;28;20039;-72
2023/03/12 08:25:50;;;;;;;10.95;4.30;;;3.50;99.90;;;;;;5095098;28;20081;-72
2023/03/12 08:28:17;;;;;;;7.22;4.03;;;3.50;99.90;;;;;;5095168;28;20044;-71
2023/03/12 08:30:53;;;;;;;9.18;4.60;;;3.60;99.90;;;;;;5095818;28;20025;-72
2023/03/12 08:33:20;;;;;;;7.40;4.13;;;3.60;99.90;;;;;;5098059;28;20109;-71
2023/03/12 08:35:46;;;;;;;8.10;4.30;;;3.60;99.90;;;;;;5100683;28;20054;-71
2023/03/12 08:38:12;;;;;;;9.45;4.55;;;3.80;99.90;;;;;;5096251;28;20473;-71
2023/03/12 08:40:38;;;;;;;8.63;4.57;;;3.80;99.90;;;;;;5094441;28;20032;-70
2023/03/12 08:43:03;;;;;;;9.35;5.45;;;3.70;99.90;;;;;;5095221;28;20146;-67
2023/03/12 08:45:29;;;;;;;12.97;6.00;;;3.60;99.90;;;;;;5095089;28;20107;-71
2023/03/12 08:47:55;;;;;;;12.43;5.55;;;3.90;99.90;;;;;;5094475;28;20029;-72
2023/03/12 08:50:21;;;;;;;19.07;8.47;;;3.70;99.90;;;;;;5095012;28;20039;-70
2023/03/12 08:52:47;;;;;;;13.48;6.38;;;3.80;99.90;;;;;;5093803;28;20094;-66
2023/03/12 08:55:13;;;;;;;11.93;6.53;;;3.80;99.90;;;;;;5092366;28;20027;-69
2023/03/12 08:57:40;;;;;;;11.20;6.60;;;3.90;99.90;;;;;;5088591;28;20024;-70
2023/03/12 09:00:10;;;;;;;12.80;6.70;;;3.90;99.90;;;;;;5090673;28;20020;-71
2023/03/12 09:02:36;;;;;;;15.55;7.00;;;4.00;99.90;;;;;;5083565;28;20051;-69
2023/03/12 09:05:02;;;;;;;11.35;6.45;;;4.00;99.90;;;;;;5098409;28;20078;-69
2023/03/12 09:07:30;;;;;;;16.92;9.00;;;4.10;99.90;;;;;;5095275;28;20085;-69
2023/03/12 09:09:56;;;;;;;14.48;7.88;;;4.10;99.90;;;;;;5095010;28;20020;-69
2023/03/12 09:12:22;;;;;;;14.47;7.63;;;4.20;99.90;;;;;;5093296;28;20032;-69
2023/03/12 09:14:49;;;;;;;14.32;8.65;;;4.10;99.90;;;;;;5092605;28;20293;-70
2023/03/12 09:17:14;;;;;;;14.00;7.90;;;4.00;99.90;;;;;;5093666;28;20035;-70
2023/03/12 09:19:40;;;;;;;15.30;8.10;;;4.20;99.90;;;;;;5093410;28;20016;-69
2023/03/12 09:22:06;;;;;;;11.60;7.07;;;4.10;99.90;;;;;;5093287;28;20020;-69
2023/03/12 09:24:32;;;;;;;14.40;7.03;;;4.00;99.90;;;;;;5094057;28;20507;-69
2023/03/12 09:26:58;;;;;;;11.07;6.70;;;3.90;99.90;;;;;;5090708;28;20044;-69
2023/03/12 09:29:23;;;;;;;10.07;6.67;;;4.10;99.90;;;;;;5106496;22;20036;-68
2023/03/12 09:31:49;;;;;;;10.50;6.33;;;4.20;99.90;;;;;;5078005;28;20024;-69
2023/03/12 09:34:15;;;;;;;11.93;6.72;;;4.00;99.90;;;;;;5099123;28;20031;-68
2023/03/12 09:36:41;;;;;;;13.33;6.90;;;4.00;99.90;;;;;;5079955;28;20028;-68
2023/03/12 09:39:06;;;;;;;11.87;7.13;;;4.20;99.90;;;;;;5078875;28;20035;-64
2023/03/12 09:41:37;;;;;;;14.17;7.43;;;4.30;99.90;;;;;;5100427;28;20096;-64
2023/03/12 09:44:21;;;;;;;10.95;6.72;;;4.40;99.90;;;;;;5076682;28;20021;-64
2023/03/12 09:46:52;;;;;;;14.48;7.65;;;4.50;99.90;;;;;;5066426;28;20047;-66
2023/03/12 09:49:31;;;;;;;9.02;6.40;;;4.50;99.90;;;;;;5070155;28;20032;-66
2023/03/12 09:51:59;;;;;;;10.75;7.78;;;4.60;99.90;;;;;;5061329;28;20032;-69
2023/03/12 09:54:54;;;;;;;10.73;6.82;;;4.90;99.90;;;;;;5076116;28;20020;-69
2023/03/12 09:57:25;;;;;;;12.85;7.57;;;5.10;99.90;;;;;;5056404;28;20029;-69
2023/03/12 09:59:51;;;;;;;11.98;7.68;;;5.40;99.90;;;;;;5045152;28;20028;-70
2023/03/12 10:02:35;;;;;;;10.25;7.00;;;5.60;99.90;;;;;;5072613;28;20032;-65
2023/03/12 10:05:07;;;;;;;10.73;7.22;;;5.70;99.90;;;;;;5057942;28;20029;-64
2023/03/12 10:07:49;;;;;;;10.68;6.93;;;5.70;99.90;;;;;;5057425;28;20474;-65
2023/03/12 10:10:29;;;;;;;12.50;7.47;;;5.50;99.90;;;;;;5055958;28;20562;-65
2023/03/12 10:13:12;;;;;;;11.23;7.88;;;5.50;99.90;;;;;;5053821;28;20071;-64
2023/03/12 10:15:41;;;;;;;10.93;8.35;;;5.60;99.90;;;;;;5058743;28;20043;-63
2023/03/12 10:18:40;;;;;;;12.48;9.05;;;5.80;99.90;;;;;;5077758;28;20021;-64
2023/03/12 10:21:51;;;;;;;17.60;10.10;;;5.80;99.90;;;;;;5077118;28;20021;-61
2023/03/12 10:24:35;;;;;;;14.15;9.63;;;5.90;99.90;;;;;;5056536;28;20048;-65
2023/03/12 10:27:00;;;;;;;12.80;9.15;;;5.90;99.90;;;;;;5076665;28;20103;-66
2023/03/12 10:29:31;;;;;;;13.53;10.27;;;6.00;99.90;;;;;;5057698;28;20068;-64
2023/03/12 10:32:12;;;;;;;13.07;9.30;;;6.20;99.90;;;;;;5076420;28;20034;-71
2023/03/12 10:34:56;;;;;;;11.20;8.95;;;6.80;99.90;;;;;;5058039;28;20395;-63
2023/03/12 10:37:58;;;;;;;13.43;8.82;;;7.50;99.90;;;;;;5076434;28;20024;-62
2023/03/12 10:40:29;;;;;;;11.98;8.57;;;7.90;99.90;;;;;;4994203;28;20043;-63
2023/03/12 10:42:55;;;;;;;12.30;8.00;;;8.40;99.90;;;;;;5000400;28;20478;-63
2023/03/12 10:45:39;;;;;;;10.32;7.78;;;9.40;99.90;;;;;;5012323;28;20422;-65
2023/03/12 10:48:08;;;;;;;9.57;7.05;;;10.00;99.90;;;;;;4997875;28;20470;-65
2023/03/12 10:50:36;;;;;;;11.65;7.45;;;9.80;99.90;;;;;;4997684;28;20030;-64
2023/03/12 10:53:17;;;;;;;10.88;8.20;;;9.50;99.90;;;;;;5014117;28;20491;-62
2023/03/12 10:55:42;;;;;;;10.70;7.68;;;9.30;99.90;;;;;;5014535;28;20523;-64
2023/03/12 10:58:22;;;;;;;11.37;7.97;;;9.10;99.90;;;;;;4997185;28;20058;-69
2023/03/12 11:00:57;;;;;;;8.65;6.53;;;9.20;99.90;;;;;;5014436;28;20025;-67
2023/03/12 11:03:22;;;;;;;11.32;7.38;;;9.80;99.90;;;;;;5013429;28;20083;-67
2023/03/12 11:05:53;;;;;;;10.88;7.65;;;9.60;99.90;;;;;;5015565;28;20108;-66
2023/03/12 11:08:26;;;;;;;11.23;6.80;;;9.60;99.90;;;;;;5004185;28;20030;-67
2023/03/12 11:10:52;;;;;;;7.88;6.47;;;9.80;99.90;;;;;;5019136;28;20101;-67
2023/03/12 11:13:25;;;;;;;9.75;6.65;;;10.10;99.90;;;;;;5017843;28;20457;-68
2023/03/12 11:15:51;;;;;;;8.27;6.15;;;10.80;99.90;;;;;;5010186;28;20097;-67
2023/03/12 11:18:19;;;;;;;9.38;6.10;;;11.20;99.90;;;;;;5080904;28;20028;-68
2023/03/12 11:20:45;;;;;;;9.18;5.78;;;11.70;99.90;;;;;;5080771;28;20094;-67
2023/03/12 11:23:21;;;;;;;8.57;6.38;;;12.20;99.90;;;;;;5076770;28;20031;-68
2023/03/12 11:25:59;;;;;;;9.37;5.57;;;12.20;99.90;;;;;;5075799;28;20036;-69
2023/03/12 11:28:34;;;;;;;9.85;5.45;;;12.20;99.90;;;;;;5056098;28;20101;-70
2023/03/12 11:31:00;;;;;;;11.13;5.70;;;12.10;99.90;;;;;;5074642;28;20024;-71
2023/03/12 11:33:26;;;;;;;11.80;5.45;;;11.90;99.90;;;;;;5074322;28;20035;-72
2023/03/12 11:36:23;;;;;;;10.85;6.18;;;12.10;99.90;;;;;;5059134;28;20071;-69
2023/03/12 11:39:01;;;;;;;11.63;6.45;;;12.00;99.90;;;;;;5053462;28;20480;-65
2023/03/12 11:41:43;;;;;;;8.57;5.50;;;11.80;99.90;;;;;;5074268;28;20033;-74
2023/03/12 11:44:42;;;;;;;11.15;5.38;;;11.70;99.90;;;;;;5056311;28;20055;-70
2023/03/12 11:47:39;;;;;;;11.75;5.32;;;11.70;99.90;;;;;;5036738;28;20056;-72
2023/03/12 11:50:08;;;;;;;11.63;5.63;;;11.70;99.90;;;;;;5054416;28;20108;-72
2023/03/12 11:52:42;;;;;;;8.57;5.32;;;11.60;99.90;;;;;;5036990;28;20100;-72
2023/03/12 11:55:16;;;;;;;11.32;5.95;;;11.60;99.90;;;;;;5055499;28;20540;-71
2023/03/12 11:57:48;;;;;;;11.98;5.97;;;11.60;99.90;;;;;;5054200;28;20029;-70
2023/03/12 12:00:17;;;;;;;11.25;5.60;;;11.80;99.90;;;;;;5038989;28;20721;-72
2023/03/12 12:02:42;;;;;;;12.93;6.00;;;11.90;99.90;;;;;;5053510;28;20021;-69
2023/03/12 12:05:20;;;;;;;9.50;4.97;;;11.90;99.90;;;;;;5055167;28;20025;-71
2023/03/12 12:08:07;;;;;;;12.10;5.22;;;12.10;99.90;;;;;;5055270;28;20024;-71
2023/03/12 12:11:02;;;;;;;13.90;6.27;;;12.10;99.90;;;;;;5053334;28;20029;-71
2023/03/12 12:13:51;;;;;;;18.73;7.32;;;12.20;99.90;;;;;;5053633;28;20029;-71
2023/03/12 12:16:43;;;;;;;10.20;4.72;;;12.20;99.90;;;;;;5055322;28;20090;-66
2023/03/12 12:19:30;;;;;;;8.60;3.88;;;12.40;99.90;;;;;;5073136;28;20115;-68
2023/03/12 12:22:08;;;;;;;9.95;3.53;;;12.40;99.90;;;;;;5083674;28;20027;-68
2023/03/12 12:25:03;;;;;;;7.18;3.42;;;12.40;99.90;;;;;;5093852;28;20032;-67
2023/03/12 12:27:39;;;;;;;9.25;3.70;;;12.30;99.90;;;;;;5075729;28;20184;-69
2023/03/12 12:30:39;;;;;;;6.18;2.55;;;12.40;99.90;;;;;;5092728;28;20040;-67
2023/03/12 12:33:23;;;;;;;9.63;3.17;;;12.40;99.90;;;;;;5093104;28;20511;-68
2023/03/12 12:35:49;;;;;;;7.82;3.25;;;12.40;99.90;;;;;;5092901;28;20032;-69
2023/03/12 12:38:35;;;;;;;5.60;2.60;;;12.50;99.90;;;;;;5094897;28;20028;-70
2023/03/12 12:41:12;;;;;;;7.32;2.63;;;12.70;99.90;;;;;;5095118;28;20028;-72
2023/03/12 12:43:50;;;;;;;7.78;2.60;;;12.70;99.90;;;;;;5036748;28;20162;-70
2023/03/12 12:46:31;;;;;;;8.70;2.97;;;12.70;99.90;;;;;;5035214;28;20477;-69
2023/03/12 12:49:01;;;;;;;10.23;2.95;;;12.80;99.90;;;;;;5035935;28;20123;-71
2023/03/12 12:51:32;;;;;;;9.80;2.78;;;13.00;99.90;;;;;;5035625;28;20136;-71
2023/03/12 12:54:09;;;;;;;10.02;2.40;;;13.20;99.90;;;;;;5035574;28;20021;-70
2023/03/12 12:56:45;;;;;;;11.48;2.97;;;13.20;99.90;;;;;;5042877;28;20017;-69
2023/03/12 12:59:31;;;;;;;10.45;2.92;;;13.20;99.90;;;;;;5058061;28;20470;-71
2023/03/12 13:01:59;;;;;;;12.63;3.50;;;13.20;99.90;;;;;;5038588;28;20025;-70
2023/03/12 13:04:30;;;;;;;8.00;2.80;;;13.00;99.90;;;;;;5041315;28;20068;-70